KFMN/FMN METAR and TAF weather

Enter ICAO airport designator
Station Type Date Time Source
KFMN METAR 2022/01/26 14:13 UTC NOAA

KFMN 261413Z 19005KT 10SM OVC029 M03/M09 A3014 RMK AO2 T10281089


Station Type Date Time Source
KFMN Decoded METAR 2022/01/26 14:13 UTC NOAA

FARMINGTON FOUR CORNERS, NM, United States (KFMN) 36-45N 108-14W 1685M
Jan 26, 2022 - 09:13 AM EST / 2022.01.26 1413 UTC
Wind: from the S (190 degrees) at 6 MPH (5 KT):0
Visibility: 10 mile(s):0
Sky conditions: overcast
Temperature: 27.0 F (-2.8 C)
Windchill: 19 F (-7 C):1
Dew Point: 16.0 F (-8.9 C)
Relative Humidity: 62%
Pressure (altimeter): 30.14 in. Hg (1020 hPa)
ob: KFMN 261413Z 19005KT 10SM OVC029 M03/M09 A3014 RMK AO2 T10281089
cycle: 14

Station Type Date Time Source
KFMN TAF 2022/01/26 12:36 UTC NOAA

TAF KFMN 261133Z 2612/2712 VRB05KT P6SM OVC060
FM261600 VRB06KT P6SM FEW070
FM262000 29009KT P6SM SKC
FM270300 VRB05KT P6SM SKC

Example: see airport list